createdAt,value
2022-10-01T00:00:27.129Z,98480.88
2022-10-01T00:02:53.726Z,98484.91
2022-10-01T00:05:20.704Z,98484.91
2022-10-01T00:07:48.743Z,98477.69
2022-10-01T00:10:16.120Z,98473.94
2022-10-01T00:12:45.721Z,98472.34
2022-10-01T00:15:13.719Z,98466.69
2022-10-01T00:17:40.653Z,98463.75
2022-10-01T00:20:14.186Z,98465.47
2022-10-01T00:22:41.513Z,98458.06
2022-10-01T00:25:09.796Z,98458.78
2022-10-01T00:27:36.308Z,98453.78
2022-10-01T00:30:03.751Z,98453.56
2022-10-01T00:32:30.692Z,98442.81
2022-10-01T00:34:57.193Z,98432.84
2022-10-01T00:37:23.819Z,98432.38
2022-10-01T00:39:50.366Z,98424.91
2022-10-01T00:42:19.949Z,98432.81
2022-10-01T00:44:46.704Z,98415.72
2022-10-01T00:47:23.763Z,98412.53
2022-10-01T00:49:55.403Z,98398.50
2022-10-01T00:52:28.338Z,98395.69
2022-10-01T00:54:59.091Z,98394.78
2022-10-01T00:57:27.635Z,98383.56
2022-10-01T00:59:58.493Z,98385.47
2022-10-01T01:02:25.258Z,98382.84
2022-10-01T01:04:51.827Z,98392.59
2022-10-01T01:07:19.166Z,98397.47
2022-10-01T01:09:47.671Z,98390.00
2022-10-01T01:12:34.842Z,98383.97
2022-10-01T01:15:12.634Z,98385.13
2022-10-01T01:17:45.102Z,98381.84
2022-10-01T01:20:27.875Z,98388.28
2022-10-01T01:23:05.236Z,98377.66
2022-10-01T01:25:41.620Z,98371.44
2022-10-01T01:28:21.316Z,98372.22
2022-10-01T01:30:49.823Z,98371.72
2022-10-01T01:33:20.383Z,98371.03
2022-10-01T01:35:51.425Z,98361.28
2022-10-01T01:38:21.676Z,98351.66
2022-10-01T01:40:51.188Z,98350.03
2022-10-01T01:43:24.511Z,98352.63
2022-10-01T01:45:52.989Z,98346.41
2022-10-01T01:48:19.540Z,98340.72
2022-10-01T01:50:50.646Z,98339.59
2022-10-01T01:53:17.445Z,98345.38
2022-10-01T01:55:45.036Z,98336.09
2022-10-01T01:58:12.130Z,98338.22
2022-10-01T02:00:40.008Z,98336.97
2022-10-01T02:03:07.347Z,98334.69
2022-10-01T02:05:42.531Z,98331.66
2022-10-01T02:08:28.450Z,98330.16
2022-10-01T02:11:09.708Z,98338.09
2022-10-01T02:13:46.374Z,98323.34
2022-10-01T02:16:24.047Z,98320.84
2022-10-01T02:18:56.446Z,98324.59
2022-10-01T02:21:28.346Z,98324.03
2022-10-01T02:23:58.999Z,98327.88
2022-10-01T02:26:28.694Z,98329.13
2022-10-01T02:29:00.339Z,98329.91
2022-10-01T02:31:30.585Z,98323.88
2022-10-01T02:34:01.058Z,98325.91
2022-10-01T02:36:28.987Z,98321.16
2022-10-01T02:38:56.906Z,98321.50
2022-10-01T02:41:27.159Z,98313.59
2022-10-01T02:43:58.187Z,98317.72
2022-10-01T02:46:33.031Z,98318.94
2022-10-01T02:48:59.727Z,98296.38
2022-10-01T02:51:38.742Z,98304.63
2022-10-01T02:54:13.657Z,98291.03
2022-10-01T02:56:48.308Z,98285.13
2022-10-01T02:59:15.318Z,98284.28
2022-10-01T03:01:43.345Z,98279.25
2022-10-01T03:04:09.868Z,98273.91
2022-10-01T03:06:36.394Z,98277.31
2022-10-01T03:09:03.246Z,98264.97
2022-10-01T03:11:29.783Z,98265.53
2022-10-01T03:13:56.258Z,98257.47
2022-10-01T03:16:22.884Z,98251.94
2022-10-01T03:18:50.804Z,98251.81
2022-10-01T03:21:17.414Z,98233.78
2022-10-01T03:23:44.139Z,98246.59
2022-10-01T03:26:10.646Z,98229.94
2022-10-01T03:28:37.262Z,98231.84
2022-10-01T03:31:07.983Z,98223.28
2022-10-01T03:33:34.862Z,98215.47
2022-10-01T03:36:03.420Z,98207.72
2022-10-01T03:38:30.400Z,98204.66
2022-10-01T03:40:57.528Z,98200.44
2022-10-01T03:43:24.036Z,98198.63
2022-10-01T03:45:50.612Z,98181.66
2022-10-01T03:48:17.171Z,98187.56
2022-10-01T03:50:43.887Z,98177.47
2022-10-01T03:53:11.759Z,98182.19
2022-10-01T03:55:38.248Z,98183.75
2022-10-01T03:58:04.840Z,98180.00
2022-10-01T04:00:31.348Z,98187.53
2022-10-01T04:02:57.879Z,98188.69
2022-10-01T04:05:24.411Z,98190.09
2022-10-01T04:07:51.002Z,98201.00
2022-10-01T04:10:19.097Z,98200.09
2022-10-01T04:12:45.628Z,98185.97
2022-10-01T04:15:12.124Z,98196.31
2022-10-01T04:17:41.578Z,98194.47
2022-10-01T04:20:10.475Z,98188.72
2022-10-01T04:22:39.175Z,98200.47
2022-10-01T04:25:07.114Z,98197.22
2022-10-01T04:27:34.949Z,98195.69
2022-10-01T04:30:01.496Z,98196.63
2022-10-01T04:32:28.067Z,98201.31
2022-10-01T04:34:54.564Z,98165.00
2022-10-01T04:37:22.045Z,98190.06
2022-10-01T04:39:49.076Z,98184.31
2022-10-01T04:42:15.935Z,98185.00
2022-10-01T04:44:43.884Z,98190.56
2022-10-01T04:47:10.677Z,98183.00
2022-10-01T04:49:37.188Z,98176.00
2022-10-01T04:52:04.269Z,98182.56
2022-10-01T04:54:31.132Z,98172.63
2022-10-01T04:56:57.785Z,98176.03
2022-10-01T04:59:24.290Z,98162.00
2022-10-01T05:01:52.334Z,98165.84
2022-10-01T05:04:18.975Z,98157.16
2022-10-01T05:06:45.501Z,98141.88
2022-10-01T05:09:12.139Z,98146.53
2022-10-01T05:11:38.644Z,98135.91
2022-10-01T05:14:05.245Z,98136.59
2022-10-01T05:16:32.038Z,98134.53
2022-10-01T05:18:59.910Z,98138.06
2022-10-01T05:21:26.508Z,98147.91
2022-10-01T05:23:53.004Z,98141.22
2022-10-01T05:26:19.631Z,98130.25
2022-10-01T05:28:46.139Z,98142.34
2022-10-01T05:31:13.082Z,98137.59
2022-10-01T05:33:40.472Z,98129.38
2022-10-01T05:36:08.299Z,98145.19
2022-10-01T05:38:34.791Z,98135.47
2022-10-01T05:41:01.468Z,98123.81
2022-10-01T05:43:27.962Z,98114.88
2022-10-01T05:45:54.530Z,98095.88
2022-10-01T05:48:21.024Z,98087.84
2022-10-01T05:50:47.577Z,98088.75
2022-10-01T05:53:15.435Z,98091.56
2022-10-01T05:55:42.071Z,98066.53
2022-10-01T05:58:10.082Z,98066.47
2022-10-01T06:00:38.530Z,98075.75
2022-10-01T06:03:05.890Z,98059.63
2022-10-01T06:05:34.099Z,98062.47
2022-10-01T06:08:01.253Z,98070.50
2022-10-01T06:10:29.224Z,98061.91
2022-10-01T06:12:58.700Z,98052.19
2022-10-01T06:15:25.452Z,98065.41
2022-10-01T06:17:51.946Z,98044.69
2022-10-01T06:20:18.936Z,98016.41
2022-10-01T06:22:53.792Z,97993.47
2022-10-01T06:25:20.676Z,98000.38
2022-10-01T06:27:53.192Z,98010.16
2022-10-01T06:30:19.804Z,97987.94
2022-10-01T06:32:46.475Z,97989.63
2022-10-01T06:35:13.283Z,97996.44
2022-10-01T06:37:39.869Z,97980.75
2022-10-01T06:40:07.404Z,97977.09
2022-10-01T06:42:33.937Z,97982.28
2022-10-01T06:45:01.935Z,97992.97
2022-10-01T06:47:28.550Z,97991.41
2022-10-01T06:49:57.655Z,98004.28
2022-10-01T06:52:24.361Z,98013.81
2022-10-01T06:54:50.870Z,98015.75
2022-10-01T06:57:17.412Z,98025.75
2022-10-01T06:59:44.030Z,98028.00
2022-10-01T07:02:22.214Z,98037.28
2022-10-01T07:04:48.766Z,98032.19
2022-10-01T07:07:15.388Z,98042.03
2022-10-01T07:09:41.888Z,98023.53
2022-10-01T07:12:08.395Z,98019.88
2022-10-01T07:14:34.897Z,98001.66
2022-10-01T07:17:01.392Z,98002.78
2022-10-01T07:19:29.390Z,97984.56
2022-10-01T07:21:55.907Z,97967.91
2022-10-01T07:24:22.411Z,97945.06
2022-10-01T07:26:48.931Z,97959.50
2022-10-01T07:29:15.439Z,97965.56
2022-10-01T07:31:42.215Z,97976.63
2022-10-01T07:34:08.863Z,97970.75
2022-10-01T07:36:36.731Z,97981.94
2022-10-01T07:39:03.402Z,97983.53
2022-10-01T07:41:29.890Z,97982.41
2022-10-01T07:43:56.417Z,97977.31
2022-10-01T07:46:23.149Z,97968.03
2022-10-01T07:48:49.902Z,97971.97
2022-10-01T07:51:16.382Z,97957.59
2022-10-01T07:53:44.359Z,97991.41
2022-10-01T07:56:10.863Z,97993.44
2022-10-01T07:58:37.482Z,97991.63
2022-10-01T08:01:04.574Z,97980.38
2022-10-01T08:03:31.142Z,97978.09
2022-10-01T08:05:57.669Z,97992.47
2022-10-01T08:08:24.147Z,97991.00
2022-10-01T08:10:52.054Z,97990.09
2022-10-01T08:13:18.950Z,97995.91
2022-10-01T08:15:46.978Z,97993.97
2022-10-01T08:18:14.086Z,98006.34
2022-10-01T08:20:40.624Z,98012.13
2022-10-01T08:23:10.196Z,98015.47
2022-10-01T08:25:37.398Z,98019.66
2022-10-01T08:28:05.558Z,98011.16
2022-10-01T08:30:32.199Z,98020.16
2022-10-01T08:33:00.385Z,98024.13
2022-10-01T08:35:28.616Z,98025.38
2022-10-01T08:37:55.121Z,98024.22
2022-10-01T08:40:22.559Z,98039.81
2022-10-01T08:42:53.854Z,98041.41
2022-10-01T08:45:27.039Z,98040.59
2022-10-01T08:48:00.576Z,98040.94
2022-10-01T08:50:41.732Z,98038.59
2022-10-01T08:53:16.560Z,98042.00
2022-10-01T08:55:44.122Z,98062.88
2022-10-01T08:58:17.867Z,98054.97
2022-10-01T09:00:48.357Z,98050.22
2022-10-01T09:03:15.735Z,98045.25
2022-10-01T09:05:53.740Z,98055.44
2022-10-01T09:08:29.830Z,98048.94
2022-10-01T09:11:00.324Z,98061.84
2022-10-01T09:13:50.789Z,98067.78
2022-10-01T09:16:25.468Z,98065.63
2022-10-01T09:19:06.659Z,98065.69
2022-10-01T09:21:49.696Z,98053.06
2022-10-01T09:24:22.599Z,98051.25
2022-10-01T09:26:49.114Z,98050.16
2022-10-01T09:29:22.918Z,98049.47
2022-10-01T09:31:53.925Z,98051.50
2022-10-01T09:34:28.796Z,98050.09
2022-10-01T09:37:05.059Z,98053.34
2022-10-01T09:39:39.193Z,98056.13
2022-10-01T09:42:05.893Z,98066.75
2022-10-01T09:44:33.772Z,98054.47
2022-10-01T09:47:01.722Z,98066.47
2022-10-01T09:49:31.181Z,98047.28
2022-10-01T09:52:04.021Z,98055.19
2022-10-01T09:54:34.489Z,98057.13
2022-10-01T09:57:07.766Z,98056.56
2022-10-01T09:59:38.092Z,98059.03
2022-10-01T10:02:15.983Z,98058.75
2022-10-01T10:04:42.582Z,98056.53
2022-10-01T10:07:17.459Z,98064.34
2022-10-01T10:09:44.225Z,98068.03
2022-10-01T10:12:26.656Z,98062.22
2022-10-01T10:14:54.799Z,98059.66
2022-10-01T10:17:22.866Z,98059.97
2022-10-01T10:19:51.764Z,98077.00
2022-10-01T10:22:22.536Z,98074.84
2022-10-01T10:24:49.212Z,98086.34
2022-10-01T10:27:24.746Z,98080.41
2022-10-01T10:30:01.392Z,98082.19
2022-10-01T10:32:29.538Z,98089.13
2022-10-01T10:35:03.226Z,98079.38
2022-10-01T10:37:32.783Z,98087.13
2022-10-01T10:39:59.301Z,98093.28
2022-10-01T10:42:26.250Z,98096.03
2022-10-01T10:44:56.004Z,98094.16
2022-10-01T10:47:23.365Z,98097.94
2022-10-01T10:49:55.569Z,98103.47
2022-10-01T10:52:27.994Z,98096.88
2022-10-01T10:54:54.773Z,98103.91
2022-10-01T10:57:24.539Z,98092.22
2022-10-01T10:59:59.483Z,98110.13
2022-10-01T11:02:27.758Z,98100.47
2022-10-01T11:04:57.346Z,98099.25
2022-10-01T11:07:26.800Z,98115.28
2022-10-01T11:10:11.775Z,98107.56
2022-10-01T11:12:54.045Z,98114.69
2022-10-01T11:15:35.593Z,98109.22
2022-10-01T11:18:33.183Z,98109.16
2022-10-01T11:21:16.044Z,98107.22
2022-10-01T11:23:56.595Z,98103.34
2022-10-01T11:26:32.973Z,98105.28
2022-10-01T11:29:12.229Z,98109.84
2022-10-01T11:31:47.297Z,98102.06
2022-10-01T11:34:41.346Z,98105.28
2022-10-01T11:37:26.760Z,98109.03
2022-10-01T11:39:58.116Z,98100.91
2022-10-01T11:42:30.681Z,98103.38
2022-10-01T11:45:03.169Z,98108.88
2022-10-01T11:47:33.749Z,98100.78
2022-10-01T11:50:04.526Z,98097.00
2022-10-01T11:52:38.546Z,98098.28
2022-10-01T11:55:13.889Z,98108.19
2022-10-01T11:57:41.143Z,98110.53
2022-10-01T12:00:10.923Z,98114.56
2022-10-01T12:02:48.267Z,98107.81
2022-10-01T12:05:18.238Z,98107.94
2022-10-01T12:07:51.088Z,98120.69
2022-10-01T12:10:31.595Z,98108.81
2022-10-01T12:13:03.948Z,98118.53
2022-10-01T12:15:33.994Z,98122.19
2022-10-01T12:18:05.112Z,98116.13
2022-10-01T12:20:36.385Z,98114.63
2022-10-01T12:23:07.867Z,98123.78
2022-10-01T12:25:43.365Z,98111.41
2022-10-01T12:28:15.449Z,98129.47
2022-10-01T12:30:50.592Z,98136.53
2022-10-01T12:33:48.407Z,98129.28
2022-10-01T12:36:25.886Z,98124.44
2022-10-01T12:39:10.641Z,98135.34
2022-10-01T12:41:48.839Z,98133.97
2022-10-01T12:44:29.872Z,98133.94
2022-10-01T12:47:08.903Z,98134.38
2022-10-01T12:49:42.239Z,98130.19
2022-10-01T12:52:18.517Z,98129.13
2022-10-01T12:55:00.344Z,98131.72
2022-10-01T12:57:39.357Z,98126.00
2022-10-01T13:00:13.219Z,98135.81
2022-10-01T13:03:31.882Z,98134.47
2022-10-01T13:06:14.652Z,98142.78
2022-10-01T13:08:51.471Z,98146.56
2022-10-01T13:11:30.040Z,98145.13
2022-10-01T13:13:57.293Z,98144.66
2022-10-01T13:16:30.226Z,98146.72
2022-10-01T13:19:06.648Z,98152.72
2022-10-01T13:21:55.196Z,98149.81
2022-10-01T13:24:28.761Z,98146.75
2022-10-01T13:27:03.133Z,98152.88
2022-10-01T13:29:43.423Z,98147.78
2022-10-01T13:32:28.298Z,98146.13
2022-10-01T13:34:55.729Z,98159.81
2022-10-01T13:37:33.906Z,98151.06
2022-10-01T13:40:01.161Z,98150.69
2022-10-01T13:42:44.210Z,98153.81
2022-10-01T13:45:23.735Z,98142.41
2022-10-01T13:47:50.601Z,98153.03
2022-10-01T13:50:23.743Z,98152.16
2022-10-01T13:52:50.679Z,98155.69
2022-10-01T13:55:27.289Z,98157.31
2022-10-01T13:58:04.949Z,98158.09
2022-10-01T14:00:32.006Z,98170.31
2022-10-01T14:03:05.656Z,98169.53
2022-10-01T14:05:37.191Z,98162.72
2022-10-01T14:08:12.295Z,98168.81
2022-10-01T14:10:44.612Z,98171.72
2022-10-01T14:13:12.543Z,98177.66
2022-10-01T14:15:43.777Z,98174.63
2022-10-01T14:18:16.688Z,98175.66
2022-10-01T14:20:55.675Z,98180.56
2022-10-01T14:23:28.842Z,98181.63
2022-10-01T14:26:01.670Z,98160.63
2022-10-01T14:28:47.580Z,98174.56
2022-10-01T14:31:23.371Z,98174.88
2022-10-01T14:34:33.567Z,98166.28
2022-10-01T14:37:00.733Z,98171.38
2022-10-01T14:39:29.279Z,98179.34
2022-10-01T14:41:57.637Z,98158.06
2022-10-01T14:44:28.135Z,98156.50
2022-10-01T14:46:56.423Z,98173.31
2022-10-01T14:49:27.655Z,98166.75
2022-10-01T14:52:00.248Z,98173.31
2022-10-01T14:54:28.643Z,98172.00
2022-10-01T14:56:55.399Z,98179.63
2022-10-01T14:59:30.803Z,98181.75
2022-10-01T15:02:00.279Z,98205.00
2022-10-01T15:04:27.178Z,98269.56
2022-10-01T15:06:54.148Z,98275.03
2022-10-01T15:09:20.788Z,98232.69
2022-10-01T15:11:49.483Z,98254.44
2022-10-01T15:14:21.157Z,98245.19
2022-10-01T15:16:49.323Z,98243.09
2022-10-01T15:19:19.525Z,98240.88
2022-10-01T15:21:50.095Z,98245.13
2022-10-01T15:24:22.537Z,98252.16
2022-10-01T15:26:50.911Z,98255.78
2022-10-01T15:29:18.077Z,98264.88
2022-10-01T15:31:47.297Z,98272.56
2022-10-01T15:34:17.692Z,98271.75
2022-10-01T15:36:45.717Z,98277.97
2022-10-01T15:39:27.427Z,98280.22
2022-10-01T15:41:54.915Z,98283.31
2022-10-01T15:44:44.164Z,98283.69
2022-10-01T15:47:31.539Z,98300.09
2022-10-01T15:50:19.979Z,98303.59
2022-10-01T15:52:51.258Z,98299.56
2022-10-01T15:55:18.912Z,98299.19
2022-10-01T15:57:45.500Z,98284.25
2022-10-01T16:00:22.074Z,98301.63
2022-10-01T16:02:49.094Z,98308.97
2022-10-01T16:05:19.716Z,98308.06
2022-10-01T16:07:48.118Z,98323.53
2022-10-01T16:10:26.003Z,98325.00
2022-10-01T16:12:52.610Z,98328.47
2022-10-01T16:15:27.344Z,98337.31
2022-10-01T16:17:55.896Z,98335.63
2022-10-01T16:20:36.615Z,98342.22
2022-10-01T16:23:51.956Z,98361.22
2022-10-01T16:26:39.175Z,98347.84
2022-10-01T16:29:18.742Z,98352.88
2022-10-01T16:31:45.906Z,98358.28
2022-10-01T16:34:14.081Z,98365.53
2022-10-01T16:36:42.642Z,98368.28
2022-10-01T16:39:09.273Z,98371.28
2022-10-01T16:41:36.544Z,98379.63
2022-10-01T16:44:04.977Z,98374.91
2022-10-01T16:46:32.110Z,98382.19
2022-10-01T16:48:58.902Z,98394.97
2022-10-01T16:51:25.552Z,98404.94
2022-10-01T16:53:54.633Z,98403.72
2022-10-01T16:56:26.261Z,98407.16
2022-10-01T16:58:53.653Z,98404.69
2022-10-01T17:01:20.266Z,98413.94
2022-10-01T17:03:46.962Z,98421.44
2022-10-01T17:06:13.500Z,98428.28
2022-10-01T17:08:40.022Z,98430.50
2022-10-01T17:11:12.718Z,98436.47
2022-10-01T17:13:39.435Z,98432.78
2022-10-01T17:16:06.346Z,98434.44
2022-10-01T17:18:32.990Z,98439.63
2022-10-01T17:21:02.353Z,98438.75
2022-10-01T17:23:28.839Z,98449.03
2022-10-01T17:25:55.384Z,98442.94
2022-10-01T17:28:23.323Z,98449.88
2022-10-01T17:30:49.937Z,98465.75
2022-10-01T17:33:18.559Z,98463.50
2022-10-01T17:35:47.741Z,98471.22
2022-10-01T17:38:14.259Z,98472.78
2022-10-01T17:40:41.291Z,98483.47
2022-10-01T17:43:10.703Z,98477.47
2022-10-01T17:45:38.744Z,98481.91
2022-10-01T17:48:05.448Z,98478.91
2022-10-01T17:50:32.275Z,98485.59
2022-10-01T17:52:59.079Z,98502.06
2022-10-01T17:55:25.838Z,98502.41
2022-10-01T17:57:52.392Z,98501.50
2022-10-01T18:00:19.626Z,98509.69
2022-10-01T18:02:47.611Z,98510.75
2022-10-01T18:05:14.540Z,98521.19
2022-10-01T18:07:41.794Z,98528.38
2022-10-01T18:10:11.520Z,98531.09
2022-10-01T18:12:38.200Z,98539.28
2022-10-01T18:15:05.919Z,98533.63
2022-10-01T18:17:33.100Z,98537.50
2022-10-01T18:20:01.563Z,98548.28
2022-10-01T18:22:28.575Z,98544.56
2022-10-01T18:24:55.223Z,98555.34
2022-10-01T18:27:21.988Z,98561.94
2022-10-01T18:29:48.503Z,98555.34
2022-10-01T18:32:18.654Z,98562.84
2022-10-01T18:34:49.388Z,98568.41
2022-10-01T18:37:26.010Z,98578.53
2022-10-01T18:39:58.420Z,98575.59
2022-10-01T18:42:41.172Z,98587.16
2022-10-01T18:45:15.612Z,98598.28
2022-10-01T18:47:54.139Z,98595.44
2022-10-01T18:50:32.537Z,98600.69
2022-10-01T18:53:17.454Z,98610.34
2022-10-01T18:56:03.065Z,98612.81
2022-10-01T18:58:48.001Z,98615.75
2022-10-01T19:01:26.633Z,98621.38
2022-10-01T19:04:25.660Z,98625.59
2022-10-01T19:07:05.729Z,98628.00
2022-10-01T19:09:42.262Z,98637.16
2022-10-01T19:12:29.197Z,98635.91
2022-10-01T19:15:05.728Z,98643.63
2022-10-01T19:17:49.323Z,98639.97
2022-10-01T19:20:28.344Z,98645.09
2022-10-01T19:23:14.129Z,98652.66
2022-10-01T19:25:48.295Z,98651.09
2022-10-01T19:28:29.567Z,98653.22
2022-10-01T19:31:05.384Z,98665.34
2022-10-01T19:33:39.774Z,98677.81
2022-10-01T19:36:14.356Z,98663.09
2022-10-01T19:38:45.010Z,98667.75
2022-10-01T19:41:18.500Z,98680.75
2022-10-01T19:43:52.485Z,98679.16
2022-10-01T19:46:23.083Z,98686.50
2022-10-01T19:48:57.472Z,98692.63
2022-10-01T19:51:30.038Z,98689.00
2022-10-01T19:53:59.748Z,98696.34
2022-10-01T19:56:30.187Z,98702.81
2022-10-01T19:58:57.932Z,98700.16
2022-10-01T20:01:32.568Z,98710.91
2022-10-01T20:04:01.952Z,98714.09
2022-10-01T20:06:32.377Z,98730.59
2022-10-01T20:09:02.979Z,98735.59
2022-10-01T20:11:37.223Z,98729.47
2022-10-01T20:14:20.240Z,98739.91
2022-10-01T20:16:52.772Z,98743.75
2022-10-01T20:19:27.612Z,98738.31
2022-10-01T20:22:00.942Z,98749.84
2022-10-01T20:24:40.394Z,98746.31
2022-10-01T20:27:18.934Z,98748.38
2022-10-01T20:29:54.017Z,98751.09
2022-10-01T20:32:27.184Z,98765.34
2022-10-01T20:35:09.536Z,98761.03
2022-10-01T20:37:48.124Z,98768.38
2022-10-01T20:40:18.476Z,98775.09
2022-10-01T20:42:49.694Z,98780.84
2022-10-01T20:45:21.220Z,98783.56
2022-10-01T20:47:52.920Z,98784.69
2022-10-01T20:50:24.705Z,98788.09
2022-10-01T20:53:01.367Z,98804.06
2022-10-01T20:55:36.107Z,98805.53
2022-10-01T20:58:09.210Z,98800.09
2022-10-01T21:00:37.967Z,98809.84
2022-10-01T21:03:14.610Z,98807.78
2022-10-01T21:05:43.275Z,98811.13
2022-10-01T21:08:23.404Z,98822.16
2022-10-01T21:10:53.731Z,98810.50
2022-10-01T21:13:33.095Z,98814.66
2022-10-01T21:16:12.230Z,98818.22
2022-10-01T21:18:46.676Z,98814.88
2022-10-01T21:21:21.971Z,98814.06
2022-10-01T21:24:03.206Z,98826.66
2022-10-01T21:26:41.552Z,98827.72
2022-10-01T21:29:26.696Z,98832.50
2022-10-01T21:32:05.621Z,98828.81
2022-10-01T21:34:46.700Z,98835.50
2022-10-01T21:37:16.115Z,98835.50
2022-10-01T21:39:56.180Z,98840.81
2022-10-01T21:42:35.025Z,98855.84
2022-10-01T21:45:30.790Z,98857.13
2022-10-01T21:48:11.598Z,98867.00
2022-10-01T21:50:50.002Z,98866.19
2022-10-01T21:53:30.448Z,98870.72
2022-10-01T21:56:18.208Z,98875.34
2022-10-01T21:59:02.678Z,98875.94
2022-10-01T22:01:45.746Z,98880.25
2022-10-01T22:04:17.952Z,98878.00
2022-10-01T22:06:50.225Z,98881.59
2022-10-01T22:09:22.518Z,98881.44
2022-10-01T22:11:53.289Z,98890.59
2022-10-01T22:14:21.611Z,98891.22
2022-10-01T22:16:53.731Z,98893.47
2022-10-01T22:19:25.578Z,98905.78
2022-10-01T22:21:57.212Z,98904.34
2022-10-01T22:24:29.770Z,98906.75
2022-10-01T22:27:04.950Z,98912.97
2022-10-01T22:29:35.937Z,98917.47
2022-10-01T22:32:05.029Z,98920.19
2022-10-01T22:34:37.085Z,98925.81
2022-10-01T22:37:07.418Z,98936.88
2022-10-01T22:39:40.036Z,98935.41
2022-10-01T22:42:12.608Z,98941.63
2022-10-01T22:44:39.136Z,98943.88
2022-10-01T22:47:43.986Z,98944.06
2022-10-01T22:50:22.604Z,98949.19
2022-10-01T22:53:01.627Z,98950.63
2022-10-01T22:55:37.169Z,98949.34
2022-10-01T22:58:23.466Z,98946.63
2022-10-01T23:00:58.642Z,98947.75
2022-10-01T23:03:38.262Z,98953.03
2022-10-01T23:06:11.156Z,98954.94
2022-10-01T23:08:45.336Z,98962.94
2022-10-01T23:11:21.627Z,98964.22
2022-10-01T23:14:00.026Z,98965.13
2022-10-01T23:16:36.212Z,98972.81
2022-10-01T23:19:21.400Z,98966.72
2022-10-01T23:21:57.717Z,98971.50
2022-10-01T23:24:38.183Z,98969.72
2022-10-01T23:27:11.097Z,98975.66
2022-10-01T23:29:55.172Z,98969.41
2022-10-01T23:32:39.663Z,98981.88
2022-10-01T23:35:13.445Z,98990.03
2022-10-01T23:38:12.541Z,98981.72
2022-10-01T23:40:41.615Z,98989.56
2022-10-01T23:43:16.300Z,98989.25
2022-10-01T23:45:49.258Z,98992.28
2022-10-01T23:48:20.938Z,98990.84
2022-10-01T23:50:55.346Z,98999.16
2022-10-01T23:53:27.645Z,98997.44
2022-10-01T23:56:02.138Z,98999.16
2022-10-01T23:58:33.438Z,98997.44
